sensor_id;sensor_type;location;lat;lon;timestamp;pressure;altitude;pressure_sealevel;temperature;humidity
65557;BME280;52200;53.490;14.376;2023-04-27T00:01:13;101567.38;;;3.93;81.97
65557;BME280;52200;53.490;14.376;2023-04-27T00:03:40;101576.69;;;3.99;82.07
65557;BME280;52200;53.490;14.376;2023-04-27T00:06:07;101576.78;;;4.05;81.60
65557;BME280;52200;53.490;14.376;2023-04-27T00:08:33;101569.91;;;3.95;82.25
65557;BME280;52200;53.490;14.376;2023-04-27T00:10:59;101565.09;;;4.10;82.12
65557;BME280;52200;53.490;14.376;2023-04-27T00:13:25;101568.53;;;4.15;82.00
65557;BME280;52200;53.490;14.376;2023-04-27T00:15:51;101569.41;;;4.17;81.62
65557;BME280;52200;53.490;14.376;2023-04-27T00:18:16;101576.06;;;4.17;81.56
65557;BME280;52200;53.490;14.376;2023-04-27T00:20:42;101565.03;;;4.04;82.42
65557;BME280;52200;53.490;14.376;2023-04-27T00:23:08;101574.25;;;4.03;82.50
65557;BME280;52200;53.490;14.376;2023-04-27T00:25:34;101573.25;;;3.94;83.23
65557;BME280;52200;53.490;14.376;2023-04-27T00:27:59;101577.66;;;4.09;82.80
65557;BME280;52200;53.490;14.376;2023-04-27T00:30:25;101574.25;;;4.03;83.55
65557;BME280;52200;53.490;14.376;2023-04-27T00:32:50;101571.41;;;3.83;84.20
65557;BME280;52200;53.490;14.376;2023-04-27T00:35:16;101570.09;;;4.07;82.88
65557;BME280;52200;53.490;14.376;2023-04-27T00:37:41;101573.44;;;4.06;83.03
65557;BME280;52200;53.490;14.376;2023-04-27T00:40:07;101574.84;;;3.88;83.39
65557;BME280;52200;53.490;14.376;2023-04-27T00:42:33;101574.63;;;3.73;84.24
65557;BME280;52200;53.490;14.376;2023-04-27T00:44:59;101577.03;;;3.67;84.30
65557;BME280;52200;53.490;14.376;2023-04-27T00:47:25;101568.94;;;3.33;84.81
65557;BME280;52200;53.490;14.376;2023-04-27T00:49:51;101577.31;;;3.32;85.73
65557;BME280;52200;53.490;14.376;2023-04-27T00:52:17;101576.53;;;3.36;85.88
65557;BME280;52200;53.490;14.376;2023-04-27T00:54:42;101569.84;;;3.36;85.55
65557;BME280;52200;53.490;14.376;2023-04-27T00:57:08;101576.63;;;3.41;84.89
65557;BME280;52200;53.490;14.376;2023-04-27T00:59:34;101584.88;;;3.35;85.64
65557;BME280;52200;53.490;14.376;2023-04-27T01:02:00;101588.19;;;3.31;85.05
65557;BME280;52200;53.490;14.376;2023-04-27T01:04:26;101592.31;;;3.27;84.28
65557;BME280;52200;53.490;14.376;2023-04-27T01:06:53;101590.78;;;3.37;83.57
65557;BME280;52200;53.490;14.376;2023-04-27T01:09:19;101594.13;;;3.36;83.48
65557;BME280;52200;53.490;14.376;2023-04-27T01:11:47;101597.09;;;3.13;83.75
65557;BME280;52200;53.490;14.376;2023-04-27T01:14:13;101598.75;;;3.14;83.54
65557;BME280;52200;53.490;14.376;2023-04-27T01:16:38;101603.53;;;3.02;84.24
65557;BME280;52200;53.490;14.376;2023-04-27T01:19:06;101597.53;;;2.92;84.14
65557;BME280;52200;53.490;14.376;2023-04-27T01:21:31;101583.94;;;3.28;82.74
65557;BME280;52200;53.490;14.376;2023-04-27T01:23:57;101598.53;;;3.02;83.46
65557;BME280;52200;53.490;14.376;2023-04-27T01:26:22;101607.00;;;3.07;82.84
65557;BME280;52200;53.490;14.376;2023-04-27T01:28:48;101600.34;;;3.09;82.38
65557;BME280;52200;53.490;14.376;2023-04-27T01:31:13;101608.53;;;2.99;82.24
65557;BME280;52200;53.490;14.376;2023-04-27T01:33:40;101603.59;;;3.03;82.88
65557;BME280;52200;53.490;14.376;2023-04-27T01:36:06;101610.34;;;3.06;81.43
65557;BME280;52200;53.490;14.376;2023-04-27T01:38:32;101605.78;;;2.88;81.79
65557;BME280;52200;53.490;14.376;2023-04-27T01:40:58;101607.59;;;2.94;82.05
65557;BME280;52200;53.490;14.376;2023-04-27T01:43:28;101604.97;;;2.87;82.35
65557;BME280;52200;53.490;14.376;2023-04-27T01:45:53;101607.56;;;2.92;81.41
65557;BME280;52200;53.490;14.376;2023-04-27T01:48:19;101605.19;;;3.00;82.17
65557;BME280;52200;53.490;14.376;2023-04-27T01:50:44;101615.09;;;2.92;82.04
65557;BME280;52200;53.490;14.376;2023-04-27T01:53:10;101615.84;;;2.88;81.35
65557;BME280;52200;53.490;14.376;2023-04-27T01:55:35;101623.13;;;2.77;81.42
65557;BME280;52200;53.490;14.376;2023-04-27T01:58:01;101612.84;;;2.65;82.27
65557;BME280;52200;53.490;14.376;2023-04-27T02:00:26;101617.38;;;2.80;81.72
65557;BME280;52200;53.490;14.376;2023-04-27T02:02:52;101619.28;;;2.50;82.95
65557;BME280;52200;53.490;14.376;2023-04-27T02:05:18;101618.25;;;2.42;83.62
65557;BME280;52200;53.490;14.376;2023-04-27T02:07:44;101612.56;;;2.49;83.64
65557;BME280;52200;53.490;14.376;2023-04-27T02:10:09;101618.47;;;2.51;83.77
65557;BME280;52200;53.490;14.376;2023-04-27T02:12:35;101620.13;;;2.52;83.44
65557;BME280;52200;53.490;14.376;2023-04-27T02:15:00;101622.09;;;2.66;82.54
65557;BME280;52200;53.490;14.376;2023-04-27T02:17:27;101624.19;;;2.46;83.06
65557;BME280;52200;53.490;14.376;2023-04-27T02:19:53;101637.22;;;2.69;82.93
65557;BME280;52200;53.490;14.376;2023-04-27T02:22:19;101632.94;;;2.65;82.18
65557;BME280;52200;53.490;14.376;2023-04-27T02:24:45;101631.88;;;2.55;82.27
65557;BME280;52200;53.490;14.376;2023-04-27T02:27:10;101633.91;;;2.32;83.40
65557;BME280;52200;53.490;14.376;2023-04-27T02:29:36;101636.31;;;2.27;84.03
65557;BME280;52200;53.490;14.376;2023-04-27T02:32:04;101637.50;;;2.43;83.28
65557;BME280;52200;53.490;14.376;2023-04-27T02:34:30;101636.16;;;2.57;83.10
65557;BME280;52200;53.490;14.376;2023-04-27T02:36:55;101640.25;;;2.54;82.99
65557;BME280;52200;53.490;14.376;2023-04-27T02:39:21;101631.00;;;2.51;83.25
65557;BME280;52200;53.490;14.376;2023-04-27T02:41:46;101635.88;;;2.45;82.74
65557;BME280;52200;53.490;14.376;2023-04-27T02:44:12;101628.94;;;2.33;83.92
65557;BME280;52200;53.490;14.376;2023-04-27T02:46:37;101636.44;;;2.33;84.12
65557;BME280;52200;53.490;14.376;2023-04-27T02:49:03;101634.63;;;2.26;82.82
65557;BME280;52200;53.490;14.376;2023-04-27T02:51:28;101629.59;;;2.26;83.93
65557;BME280;52200;53.490;14.376;2023-04-27T02:53:53;101633.84;;;2.29;83.70
65557;BME280;52200;53.490;14.376;2023-04-27T02:56:19;101634.06;;;2.39;83.42
65557;BME280;52200;53.490;14.376;2023-04-27T02:58:44;101628.78;;;2.27;83.74
65557;BME280;52200;53.490;14.376;2023-04-27T03:01:12;101640.06;;;2.08;84.38
65557;BME280;52200;53.490;14.376;2023-04-27T03:03:37;101643.44;;;2.10;85.02
65557;BME280;52200;53.490;14.376;2023-04-27T03:06:03;101644.81;;;1.96;85.33
65557;BME280;52200;53.490;14.376;2023-04-27T03:08:28;101638.19;;;1.99;85.02
65557;BME280;52200;53.490;14.376;2023-04-27T03:10:54;101643.44;;;2.10;84.36
65557;BME280;52200;53.490;14.376;2023-04-27T03:13:19;101640.06;;;2.08;84.25
65557;BME280;52200;53.490;14.376;2023-04-27T03:15:44;101649.09;;;2.01;85.08
65557;BME280;52200;53.490;14.376;2023-04-27T03:18:10;101643.16;;;1.98;85.42
65557;BME280;52200;53.490;14.376;2023-04-27T03:20:36;101651.63;;;2.03;85.23
65557;BME280;52200;53.490;14.376;2023-04-27T03:23:01;101653.47;;;2.10;85.23
65557;BME280;52200;53.490;14.376;2023-04-27T03:25:26;101652.84;;;2.19;84.60
65557;BME280;52200;53.490;14.376;2023-04-27T03:27:52;101656.94;;;2.15;85.04
65557;BME280;52200;53.490;14.376;2023-04-27T03:30:17;101653.63;;;2.18;84.49
65557;BME280;52200;53.490;14.376;2023-04-27T03:32:43;101653.59;;;2.16;84.56
65557;BME280;52200;53.490;14.376;2023-04-27T03:35:08;101655.00;;;2.03;85.44
65557;BME280;52200;53.490;14.376;2023-04-27T03:37:34;101658.19;;;1.98;85.17
65557;BME280;52200;53.490;14.376;2023-04-27T03:39:59;101659.88;;;1.99;84.90
65557;BME280;52200;53.490;14.376;2023-04-27T03:42:25;101669.41;;;2.12;84.76
65557;BME280;52200;53.490;14.376;2023-04-27T03:44:50;101661.66;;;2.03;84.96
65557;BME280;52200;53.490;14.376;2023-04-27T03:47:16;101666.16;;;1.81;85.43
65557;BME280;52200;53.490;14.376;2023-04-27T03:49:41;101666.47;;;1.93;85.50
65557;BME280;52200;53.490;14.376;2023-04-27T03:52:06;101672.94;;;1.85;86.06
65557;BME280;52200;53.490;14.376;2023-04-27T03:54:32;101675.59;;;1.91;85.97
65557;BME280;52200;53.490;14.376;2023-04-27T03:56:57;101673.94;;;1.92;85.73
65557;BME280;52200;53.490;14.376;2023-04-27T03:59:23;101675.81;;;2.01;85.52
65557;BME280;52200;53.490;14.376;2023-04-27T04:01:48;101676.75;;;2.04;85.39
65557;BME280;52200;53.490;14.376;2023-04-27T04:04:13;101667.44;;;2.00;85.72
65557;BME280;52200;53.490;14.376;2023-04-27T04:06:39;101680.19;;;2.08;85.07
65557;BME280;52200;53.490;14.376;2023-04-27T04:09:05;101675.16;;;2.08;85.19
65557;BME280;52200;53.490;14.376;2023-04-27T04:11:30;101686.81;;;2.07;85.88
65557;BME280;52200;53.490;14.376;2023-04-27T04:13:56;101687.06;;;2.17;84.99
65557;BME280;52200;53.490;14.376;2023-04-27T04:16:21;101683.16;;;2.28;84.86
65557;BME280;52200;53.490;14.376;2023-04-27T04:18:47;101691.47;;;2.27;84.77
65557;BME280;52200;53.490;14.376;2023-04-27T04:21:13;101693.13;;;2.27;85.12
65557;BME280;52200;53.490;14.376;2023-04-27T04:23:38;101696.47;;;2.25;85.17
65557;BME280;52200;53.490;14.376;2023-04-27T04:26:05;101690.81;;;2.34;85.15
65557;BME280;52200;53.490;14.376;2023-04-27T04:28:31;101697.75;;;2.46;85.09
65557;BME280;52200;53.490;14.376;2023-04-27T04:30:57;101701.00;;;2.42;84.72
65557;BME280;52200;53.490;14.376;2023-04-27T04:33:23;101694.44;;;2.47;84.28
65557;BME280;52200;53.490;14.376;2023-04-27T04:35:50;101695.44;;;2.54;84.16
65557;BME280;52200;53.490;14.376;2023-04-27T04:38:15;101709.59;;;2.52;84.54
65557;BME280;52200;53.490;14.376;2023-04-27T04:40:41;101702.44;;;2.69;84.11
65557;BME280;52200;53.490;14.376;2023-04-27T04:43:07;101703.91;;;2.59;84.28
65557;BME280;52200;53.490;14.376;2023-04-27T04:45:32;101711.81;;;2.76;83.60
65557;BME280;52200;53.490;14.376;2023-04-27T04:47:57;101712.50;;;2.70;83.69
65557;BME280;52200;53.490;14.376;2023-04-27T04:50:25;101712.72;;;2.80;83.79
65557;BME280;52200;53.490;14.376;2023-04-27T04:52:51;101727.31;;;2.98;83.28
65557;BME280;52200;53.490;14.376;2023-04-27T04:55:16;101720.41;;;2.87;83.96
65557;BME280;52200;53.490;14.376;2023-04-27T04:57:42;101723.03;;;2.94;83.03
65557;BME280;52200;53.490;14.376;2023-04-27T05:00:08;101724.47;;;3.23;82.87
65557;BME280;52200;53.490;14.376;2023-04-27T05:02:38;101726.09;;;3.21;82.51
65557;BME280;52200;53.490;14.376;2023-04-27T05:05:03;101729.75;;;3.36;82.42
65557;BME280;52200;53.490;14.376;2023-04-27T05:07:29;101731.38;;;3.34;82.53
65557;BME280;52200;53.490;14.376;2023-04-27T05:09:55;101733.41;;;3.53;81.61
65557;BME280;52200;53.490;14.376;2023-04-27T05:12:20;101731.94;;;3.63;81.29
65557;BME280;52200;53.490;14.376;2023-04-27T05:14:46;101732.00;;;3.68;81.00
65557;BME280;52200;53.490;14.376;2023-04-27T05:17:12;101728.50;;;3.60;81.37
65557;BME280;52200;53.490;14.376;2023-04-27T05:19:38;101728.34;;;3.99;80.33
65557;BME280;52200;53.490;14.376;2023-04-27T05:22:03;101728.59;;;4.70;79.29
65557;BME280;52200;53.490;14.376;2023-04-27T05:24:28;101726.28;;;5.58;75.13
65557;BME280;52200;53.490;14.376;2023-04-27T05:26:54;101739.00;;;5.65;73.76
65557;BME280;52200;53.490;14.376;2023-04-27T05:29:20;101735.00;;;5.89;73.88
65557;BME280;52200;53.490;14.376;2023-04-27T05:31:46;101732.44;;;5.85;73.55
65557;BME280;52200;53.490;14.376;2023-04-27T05:34:11;101740.53;;;5.53;73.44
65557;BME280;52200;53.490;14.376;2023-04-27T05:36:37;101740.03;;;5.88;73.77
65557;BME280;52200;53.490;14.376;2023-04-27T05:39:03;101743.34;;;5.84;73.60
65557;BME280;52200;53.490;14.376;2023-04-27T05:41:29;101745.13;;;5.12;74.21
65557;BME280;52200;53.490;14.376;2023-04-27T05:43:55;101748.72;;;4.70;76.04
65557;BME280;52200;53.490;14.376;2023-04-27T05:46:20;101741.25;;;4.75;77.36
65557;BME280;52200;53.490;14.376;2023-04-27T05:48:46;101744.88;;;4.94;76.16
65557;BME280;52200;53.490;14.376;2023-04-27T05:51:11;101740.84;;;5.08;75.51
65557;BME280;52200;53.490;14.376;2023-04-27T05:53:37;101750.00;;;5.75;75.29
65557;BME280;52200;53.490;14.376;2023-04-27T05:56:03;101750.00;;;5.75;73.96
65557;BME280;52200;53.490;14.376;2023-04-27T05:58:31;101752.34;;;6.51;72.06
65557;BME280;52200;53.490;14.376;2023-04-27T06:00:57;101748.19;;;6.57;71.12
65557;BME280;52200;53.490;14.376;2023-04-27T06:03:23;101759.38;;;7.01;70.33
65557;BME280;52200;53.490;14.376;2023-04-27T06:05:56;101742.94;;;6.29;70.97
65557;BME280;52200;53.490;14.376;2023-04-27T06:08:21;101743.59;;;6.08;72.54
65557;BME280;52200;53.490;14.376;2023-04-27T06:10:47;101751.69;;;5.76;72.22
65557;BME280;52200;53.490;14.376;2023-04-27T06:13:14;101753.38;;;5.77;73.02
65557;BME280;52200;53.490;14.376;2023-04-27T06:15:40;101745.25;;;6.05;73.56
65557;BME280;52200;53.490;14.376;2023-04-27T06:18:05;101747.84;;;6.12;73.26
65557;BME280;52200;53.490;14.376;2023-04-27T06:20:31;101756.03;;;5.91;73.14
65557;BME280;52200;53.490;14.376;2023-04-27T06:22:57;101754.25;;;5.78;73.78
65557;BME280;52200;53.490;14.376;2023-04-27T06:25:24;101755.16;;;5.88;73.15
65557;BME280;52200;53.490;14.376;2023-04-27T06:27:51;101754.84;;;5.57;73.19
65557;BME280;52200;53.490;14.376;2023-04-27T06:30:16;101760.13;;;5.80;73.64
65557;BME280;52200;53.490;14.376;2023-04-27T06:32:42;101765.75;;;5.54;73.18
65557;BME280;52200;53.490;14.376;2023-04-27T06:35:08;101765.22;;;5.85;73.54
65557;BME280;52200;53.490;14.376;2023-04-27T06:37:33;101758.78;;;6.15;72.69
65557;BME280;52200;53.490;14.376;2023-04-27T06:39:58;101768.94;;;6.21;73.15
65557;BME280;52200;53.490;14.376;2023-04-27T06:42:24;101765.25;;;5.88;73.07
65557;BME280;52200;53.490;14.376;2023-04-27T06:44:52;101755.41;;;6.12;72.96
65557;BME280;52200;53.490;14.376;2023-04-27T06:47:18;101751.47;;;6.45;71.65
65557;BME280;52200;53.490;14.376;2023-04-27T06:49:45;101756.59;;;6.56;71.63
65557;BME280;52200;53.490;14.376;2023-04-27T06:52:10;101760.84;;;6.64;71.16
65557;BME280;52200;53.490;14.376;2023-04-27T06:54:36;101755.84;;;6.68;71.30
65557;BME280;52200;53.490;14.376;2023-04-27T06:57:01;101755.91;;;6.81;70.87
65557;BME280;52200;53.490;14.376;2023-04-27T06:59:27;101756.88;;;7.04;70.68
65557;BME280;52200;53.490;14.376;2023-04-27T07:01:52;101759.41;;;7.07;69.98
65557;BME280;52200;53.490;14.376;2023-04-27T07:04:18;101757.75;;;7.19;70.32
65557;BME280;52200;53.490;14.376;2023-04-27T07:06:43;101767.13;;;7.51;68.83
65557;BME280;52200;53.490;14.376;2023-04-27T07:09:09;101759.53;;;7.45;68.50
65557;BME280;52200;53.490;14.376;2023-04-27T07:11:34;101762.94;;;7.53;67.30
65557;BME280;52200;53.490;14.376;2023-04-27T07:14:00;101771.34;;;7.42;66.53
65557;BME280;52200;53.490;14.376;2023-04-27T07:16:25;101759.63;;;7.66;66.82
65557;BME280;52200;53.490;14.376;2023-04-27T07:18:50;101760.47;;;7.91;65.46
65557;BME280;52200;53.490;14.376;2023-04-27T07:21:16;101761.34;;;8.29;64.83
65557;BME280;52200;53.490;14.376;2023-04-27T07:23:41;101764.72;;;8.33;64.45
65557;BME280;52200;53.490;14.376;2023-04-27T07:26:07;101763.00;;;8.74;63.09
65557;BME280;52200;53.490;14.376;2023-04-27T07:28:33;101766.28;;;9.02;62.98
65557;BME280;52200;53.490;14.376;2023-04-27T07:31:05;101765.34;;;9.28;62.37
65557;BME280;52200;53.490;14.376;2023-04-27T07:33:32;101766.25;;;9.22;62.10
65557;BME280;52200;53.490;14.376;2023-04-27T07:35:58;101772.91;;;9.42;60.08
65557;BME280;52200;53.490;14.376;2023-04-27T07:38:25;101773.94;;;8.90;60.75
65557;BME280;52200;53.490;14.376;2023-04-27T07:40:51;101773.84;;;9.22;59.56
65557;BME280;52200;53.490;14.376;2023-04-27T07:43:17;101785.47;;;9.68;58.63
65557;BME280;52200;53.490;14.376;2023-04-27T07:45:42;101774.75;;;9.06;60.35
65557;BME280;52200;53.490;14.376;2023-04-27T07:48:08;101778.06;;;9.26;59.12
65557;BME280;52200;53.490;14.376;2023-04-27T07:50:33;101774.47;;;9.61;58.88
65557;BME280;52200;53.490;14.376;2023-04-27T07:52:59;101772.16;;;9.19;59.21
65557;BME280;52200;53.490;14.376;2023-04-27T07:55:25;101772.13;;;9.32;59.25
65557;BME280;52200;53.490;14.376;2023-04-27T07:57:52;101770.94;;;9.87;57.46
65557;BME280;52200;53.490;14.376;2023-04-27T08:00:18;101777.63;;;10.00;56.90
65557;BME280;52200;53.490;14.376;2023-04-27T08:02:44;101773.47;;;9.92;57.58
65557;BME280;52200;53.490;14.376;2023-04-27T08:05:09;101774.88;;;10.27;56.84
65557;BME280;52200;53.490;14.376;2023-04-27T08:07:34;101778.41;;;10.07;55.76
65557;BME280;52200;53.490;14.376;2023-04-27T08:10:00;101773.28;;;10.15;55.80
65557;BME280;52200;53.490;14.376;2023-04-27T08:12:26;101778.78;;;10.67;55.33
65557;BME280;52200;53.490;14.376;2023-04-27T08:14:51;101778.94;;;10.48;54.03
65557;BME280;52200;53.490;14.376;2023-04-27T08:17:17;101790.94;;;10.29;54.35
65557;BME280;52200;53.490;14.376;2023-04-27T08:19:43;101787.94;;;9.79;53.96
65557;BME280;52200;53.490;14.376;2023-04-27T08:22:08;101781.19;;;9.75;56.46
65557;BME280;52200;53.490;14.376;2023-04-27T08:24:34;101789.34;;;10.17;55.36
65557;BME280;52200;53.490;14.376;2023-04-27T08:27:00;101786.50;;;10.54;53.33
65557;BME280;52200;53.490;14.376;2023-04-27T08:29:27;101788.31;;;11.25;52.79
65557;BME280;52200;53.490;14.376;2023-04-27T08:31:53;101788.66;;;11.65;50.95
65557;BME280;52200;53.490;14.376;2023-04-27T08:34:18;101784.03;;;11.29;50.72
65557;BME280;52200;53.490;14.376;2023-04-27T08:36:44;101785.88;;;11.18;51.31
65557;BME280;52200;53.490;14.376;2023-04-27T08:39:09;101785.19;;;11.02;52.36
65557;BME280;52200;53.490;14.376;2023-04-27T08:41:35;101776.56;;;10.31;52.41
65557;BME280;52200;53.490;14.376;2023-04-27T08:44:00;101789.53;;;9.92;52.23
65557;BME280;52200;53.490;14.376;2023-04-27T08:46:26;101784.91;;;9.02;52.63
65557;BME280;52200;53.490;14.376;2023-04-27T08:48:52;101789.94;;;9.15;54.24
65557;BME280;52200;53.490;14.376;2023-04-27T08:51:18;101791.38;;;9.68;52.59
65557;BME280;52200;53.490;14.376;2023-04-27T08:53:50;101778.59;;;9.81;52.71
65557;BME280;52200;53.490;14.376;2023-04-27T08:56:17;101778.59;;;9.81;52.14
65557;BME280;52200;53.490;14.376;2023-04-27T08:58:43;101783.53;;;10.04;52.76
65557;BME280;52200;53.490;14.376;2023-04-27T09:01:09;101780.69;;;10.43;52.78
65557;BME280;52200;53.490;14.376;2023-04-27T09:03:35;101773.13;;;10.35;52.47
65557;BME280;52200;53.490;14.376;2023-04-27T09:06:04;101774.25;;;10.02;53.10
65557;BME280;52200;53.490;14.376;2023-04-27T09:11:07;101767.19;;;10.41;50.60
65557;BME280;52200;53.490;14.376;2023-04-27T09:13:34;101772.97;;;10.54;50.67
65557;BME280;52200;53.490;14.376;2023-04-27T09:16:00;101774.56;;;10.67;51.63
65557;BME280;52200;53.490;14.376;2023-04-27T09:18:26;101772.97;;;10.55;51.48
65557;BME280;52200;53.490;14.376;2023-04-27T09:20:52;101779.22;;;10.14;52.17
65557;BME280;52200;53.490;14.376;2023-04-27T09:23:29;101779.81;;;10.45;50.71
65557;BME280;52200;53.490;14.376;2023-04-27T09:25:56;101785.28;;;10.92;50.58
65557;BME280;52200;53.490;14.376;2023-04-27T09:28:23;101781.22;;;11.49;49.27
65557;BME280;52200;53.490;14.376;2023-04-27T09:30:56;101775.84;;;11.05;49.05
65557;BME280;52200;53.490;14.376;2023-04-27T09:33:26;101772.16;;;11.28;49.36
65557;BME280;52200;53.490;14.376;2023-04-27T09:35:53;101780.06;;;11.05;49.90
65557;BME280;52200;53.490;14.376;2023-04-27T09:38:19;101767.69;;;10.74;49.97
65557;BME280;52200;53.490;14.376;2023-04-27T09:40:46;101768.72;;;10.57;49.80
65557;BME280;52200;53.490;14.376;2023-04-27T09:43:12;101758.03;;;10.18;49.38
65557;BME280;52200;53.490;14.376;2023-04-27T09:45:38;101769.00;;;10.20;50.82
65557;BME280;52200;53.490;14.376;2023-04-27T09:48:05;101767.09;;;10.50;49.95
65557;BME280;52200;53.490;14.376;2023-04-27T09:50:35;101772.00;;;10.67;50.54
65557;BME280;52200;53.490;14.376;2023-04-27T09:53:04;101771.47;;;10.29;49.17
65557;BME280;52200;53.490;14.376;2023-04-27T09:55:38;101770.66;;;10.27;49.93
65557;BME280;52200;53.490;14.376;2023-04-27T10:01:24;101769.09;;;11.00;47.92
65557;BME280;52200;53.490;14.376;2023-04-27T10:07:11;101762.13;;;10.35;49.44
65557;BME280;52200;53.490;14.376;2023-04-27T10:09:42;101764.31;;;9.67;50.17
65557;BME280;52200;53.490;14.376;2023-04-27T10:12:19;101765.06;;;9.82;50.35
65557;BME280;52200;53.490;14.376;2023-04-27T10:17:22;101752.50;;;10.71;49.54
65557;BME280;52200;53.490;14.376;2023-04-27T10:19:57;101760.94;;;10.74;49.13
65557;BME280;52200;53.490;14.376;2023-04-27T10:22:23;101754.16;;;10.70;48.80
65557;BME280;52200;53.490;14.376;2023-04-27T10:24:50;101757.56;;;11.42;47.97
65557;BME280;52200;53.490;14.376;2023-04-27T10:27:17;101744.72;;;10.83;47.17
65557;BME280;52200;53.490;14.376;2023-04-27T10:29:49;101753.56;;;10.50;48.06
65557;BME280;52200;53.490;14.376;2023-04-27T10:32:20;101758.44;;;9.58;49.71
65557;BME280;52200;53.490;14.376;2023-04-27T10:34:48;101757.75;;;9.28;50.66
65557;BME280;52200;53.490;14.376;2023-04-27T10:37:15;101772.81;;;9.59;50.96
65557;BME280;52200;53.490;14.376;2023-04-27T10:39:43;101765.69;;;10.15;50.34
65557;BME280;52200;53.490;14.376;2023-04-27T10:42:09;101762.91;;;11.21;49.85
65557;BME280;52200;53.490;14.376;2023-04-27T10:44:36;101764.78;;;11.70;47.79
65557;BME280;52200;53.490;14.376;2023-04-27T10:47:12;101751.81;;;11.87;46.06
65557;BME280;52200;53.490;14.376;2023-04-27T10:49:38;101755.19;;;11.30;45.69
65557;BME280;52200;53.490;14.376;2023-04-27T10:52:04;101774.88;;;11.14;45.49
65557;BME280;52200;53.490;14.376;2023-04-27T10:54:30;101773.38;;;10.99;46.14
65557;BME280;52200;53.490;14.376;2023-04-27T10:57:07;101771.78;;;10.90;45.58
65557;BME280;52200;53.490;14.376;2023-04-27T10:59:34;101785.28;;;10.95;47.01
65557;BME280;52200;53.490;14.376;2023-04-27T11:02:01;101775.69;;;11.16;49.57
65557;BME280;52200;53.490;14.376;2023-04-27T11:04:37;101787.44;;;11.90;47.97
65557;BME280;52200;53.490;14.376;2023-04-27T11:07:05;101770.13;;;12.14;47.09
65557;BME280;52200;53.490;14.376;2023-04-27T11:09:31;101755.81;;;12.55;45.32
65557;BME280;52200;53.490;14.376;2023-04-27T11:11:57;101771.00;;;12.10;44.92
65557;BME280;52200;53.490;14.376;2023-04-27T11:14:23;101774.44;;;11.48;45.84
65557;BME280;52200;53.490;14.376;2023-04-27T11:16:49;101768.97;;;11.12;47.05
65557;BME280;52200;53.490;14.376;2023-04-27T11:19:14;101764.84;;;11.66;47.48
65557;BME280;52200;53.490;14.376;2023-04-27T11:21:40;101751.31;;;12.21;47.45
65557;BME280;52200;53.490;14.376;2023-04-27T11:24:07;101754.63;;;12.72;44.73
65557;BME280;52200;53.490;14.376;2023-04-27T11:26:33;101764.53;;;12.42;43.97
65557;BME280;52200;53.490;14.376;2023-04-27T11:29:02;101763.78;;;12.37;44.44
65557;BME280;52200;53.490;14.376;2023-04-27T11:31:45;101758.31;;;12.08;43.62
65557;BME280;52200;53.490;14.376;2023-04-27T11:34:22;101751.75;;;12.45;44.67
65557;BME280;52200;53.490;14.376;2023-04-27T11:37:01;101755.88;;;13.37;43.28
65557;BME280;52200;53.490;14.376;2023-04-27T11:39:31;101757.13;;;13.60;43.21
65557;BME280;52200;53.490;14.376;2023-04-27T11:42:19;101763.50;;;12.54;42.43
65557;BME280;52200;53.490;14.376;2023-04-27T11:45:00;101763.63;;;11.32;43.95
65557;BME280;52200;53.490;14.376;2023-04-27T11:47:28;101771.03;;;11.49;44.57
65557;BME280;52200;53.490;14.376;2023-04-27T11:49:55;101772.81;;;11.44;45.51
65557;BME280;52200;53.490;14.376;2023-04-27T11:52:28;101778.41;;;11.02;46.04
65557;BME280;52200;53.490;14.376;2023-04-27T11:54:54;101772.88;;;10.66;45.89
65557;BME280;52200;53.490;14.376;2023-04-27T11:57:26;101779.00;;;10.45;47.14
65557;BME280;52200;53.490;14.376;2023-04-27T11:59:53;101782.53;;;10.24;47.06
65557;BME280;52200;53.490;14.376;2023-04-27T12:02:19;101778.19;;;10.40;47.19
65557;BME280;52200;53.490;14.376;2023-04-27T12:04:46;101766.44;;;10.25;46.47
65557;BME280;52200;53.490;14.376;2023-04-27T12:07:12;101772.22;;;10.44;46.87
65557;BME280;52200;53.490;14.376;2023-04-27T12:09:38;101768.47;;;10.79;46.13
65557;BME280;52200;53.490;14.376;2023-04-27T12:12:04;101762.56;;;11.47;46.62
65557;BME280;52200;53.490;14.376;2023-04-27T12:14:30;101778.63;;;11.54;46.01
65557;BME280;52200;53.490;14.376;2023-04-27T12:16:56;101779.50;;;12.11;44.52
65557;BME280;52200;53.490;14.376;2023-04-27T12:19:21;101773.16;;;12.36;42.28
65557;BME280;52200;53.490;14.376;2023-04-27T12:21:49;101769.75;;;12.36;43.24
65557;BME280;52200;53.490;14.376;2023-04-27T12:24:15;101764.28;;;12.57;42.98
65557;BME280;52200;53.490;14.376;2023-04-27T12:26:40;101772.38;;;12.78;43.08
65557;BME280;52200;53.490;14.376;2023-04-27T12:29:06;101772.44;;;12.75;40.76
65557;BME280;52200;53.490;14.376;2023-04-27T12:31:31;101766.09;;;12.49;40.38
65557;BME280;52200;53.490;14.376;2023-04-27T12:33:57;101774.72;;;12.89;39.93
65557;BME280;52200;53.490;14.376;2023-04-27T12:36:23;101774.38;;;13.48;40.61
65557;BME280;52200;53.490;14.376;2023-04-27T12:38:48;101768.75;;;14.08;41.47
65557;BME280;52200;53.490;14.376;2023-04-27T12:41:14;101778.72;;;13.45;41.78
65557;BME280;52200;53.490;14.376;2023-04-27T12:43:40;101778.75;;;12.55;43.20
65557;BME280;52200;53.490;14.376;2023-04-27T12:46:06;101785.50;;;12.08;43.54
65557;BME280;52200;53.490;14.376;2023-04-27T12:48:32;101791.84;;;11.12;45.40
65557;BME280;52200;53.490;14.376;2023-04-27T12:50:58;101795.81;;;10.58;46.69
65557;BME280;52200;53.490;14.376;2023-04-27T12:53:23;101797.13;;;10.96;47.25
65557;BME280;52200;53.490;14.376;2023-04-27T12:55:49;101796.09;;;11.10;46.90